Terminal Aerodrome Forecast
Issued by NWS North Platte, NE

Home | Current Version | Previous Version | Text Only | Print | Product List | Glossary Off
Versions: 1 2 3 4 5 6 7 8 9 10 11 12 13 14 15 16 17 18 19 20 21 22

000
FTUS43 KLBF 041100
TAFVTN
TAF
KVTN 041130Z 0412/0512 18008KT P6SM SCT100
     FM041600 17014G22KT P6SM SCT080 BKN150
     FM042100 16013G19KT P6SM VCTS BKN050CB OVC150
     FM050300 14011KT P6SM BKN150
     FM051000 09009KT P6SM SCT150=

USA.gov is the U.S. government's official web portal to all federal, state and local government web resources and services.